Time;durP1;ratioP1;P1;durP2;ratioP2;P2;SDS_P1;SDS_P2;PMS_P1;PMS_P2;Temp;Humidity;BMP_temperature;BMP_pressure;BME280_temperature;BME280_humidity;BME280_pressure;Samples;Min_cycle;Max_cycle;Signal;HPM_P1;HPM_P2
2023/01/16 00:00:49;;;;;;;1999.90;999.90;;;9.60;99.90;;;;;;5013407;28;20087;-80
2023/01/16 00:03:14;;;;;;;1999.90;999.90;;;9.60;99.90;;;;;;5012106;28;20037;-83
2023/01/16 00:05:40;;;;;;;1999.90;999.90;;;9.60;99.90;;;;;;5008218;28;20040;-78
2023/01/16 00:08:06;;;;;;;1999.90;999.90;;;9.60;99.90;;;;;;5012492;28;20381;-80
2023/01/16 00:10:32;;;;;;;1999.90;999.90;;;9.50;99.90;;;;;;5011479;28;20083;-79
2023/01/16 00:12:57;;;;;;;1999.90;999.90;;;9.50;99.90;;;;;;5012532;28;20026;-82
2023/01/16 00:15:23;;;;;;;1999.90;999.90;;;9.60;99.90;;;;;;5012929;28;20057;-80
2023/01/16 00:17:49;;;;;;;1999.90;999.90;;;9.60;99.90;;;;;;5015561;28;20025;-82
2023/01/16 00:20:15;;;;;;;1999.90;999.90;;;9.50;99.90;;;;;;5011913;28;20042;-81
2023/01/16 00:22:41;;;;;;;1999.90;999.90;;;9.50;99.90;;;;;;5032096;28;20022;-81
2023/01/16 00:25:07;;;;;;;1999.90;999.90;;;9.50;99.90;;;;;;5016945;28;20057;-81
2023/01/16 00:27:33;;;;;;;1999.90;999.90;;;9.60;99.90;;;;;;5016321;28;20512;-80
2023/01/16 00:29:58;;;;;;;1999.90;999.90;;;9.60;99.90;;;;;;5016139;28;20037;-80
2023/01/16 00:32:24;;;;;;;1999.90;999.90;;;9.80;99.90;;;;;;5016475;28;20029;-81
2023/01/16 00:34:49;;;;;;;1999.90;999.90;;;9.80;99.90;;;;;;5015072;28;20065;-83
2023/01/16 00:37:15;;;;;;;1999.90;999.90;;;9.80;99.90;;;;;;5015217;28;20032;-85
2023/01/16 00:39:41;;;;;;;1999.90;999.90;;;9.80;99.90;;;;;;5016911;28;20516;-81
2023/01/16 00:42:06;;;;;;;1999.90;999.90;;;9.80;99.90;;;;;;5016229;28;20515;-81
2023/01/16 00:44:32;;;;;;;1999.90;999.90;;;9.80;99.90;;;;;;5014684;28;20549;-81
2023/01/16 00:46:58;;;;;;;1999.90;999.90;;;9.90;99.90;;;;;;5016735;28;20025;-80
2023/01/16 00:49:24;;;;;;;1999.90;999.90;;;9.90;99.90;;;;;;5016503;28;20448;-83
2023/01/16 00:51:49;;;;;;;1999.90;999.90;;;10.00;99.90;;;;;;5016517;28;20080;-83
2023/01/16 00:54:15;;;;;;;1999.90;999.90;;;10.10;99.90;;;;;;5001355;28;20034;-83
2023/01/16 00:56:40;;;;;;;1999.90;999.90;;;10.20;99.90;;;;;;4995008;28;20472;-83
2023/01/16 00:59:06;;;;;;;1999.90;999.90;;;10.40;99.90;;;;;;5013898;28;20030;-86
2023/01/16 01:01:32;;;;;;;1999.90;999.90;;;10.40;99.90;;;;;;5015227;28;20396;-81
2023/01/16 01:03:59;;;;;;;1999.90;999.90;;;10.40;99.90;;;;;;5016009;28;20118;-81
2023/01/16 01:06:25;;;;;;;1999.90;999.90;;;10.30;99.90;;;;;;5015360;28;20026;-81
2023/01/16 01:08:50;;;;;;;1999.90;999.90;;;10.10;99.90;;;;;;5015432;28;20096;-80
2023/01/16 01:11:16;;;;;;;1999.90;999.90;;;10.10;99.90;;;;;;5014251;28;20132;-79
2023/01/16 01:13:43;;;;;;;1999.90;999.90;;;10.00;99.90;;;;;;5014876;28;20034;-78
2023/01/16 01:16:09;;;;;;;1999.90;999.90;;;9.90;99.90;;;;;;5015549;28;20026;-80
2023/01/16 01:18:35;;;;;;;1999.90;999.90;;;9.80;99.90;;;;;;5014699;28;20404;-78
2023/01/16 01:21:01;;;;;;;1999.90;999.90;;;9.70;99.90;;;;;;5016111;28;20045;-80
2023/01/16 01:23:27;;;;;;;1999.90;999.90;;;9.60;99.90;;;;;;5016273;28;20553;-79
2023/01/16 01:25:52;;;;;;;1999.90;999.90;;;9.50;99.90;;;;;;5016874;28;20428;-79
2023/01/16 01:28:18;;;;;;;1999.90;999.90;;;9.40;99.90;;;;;;5013594;28;20065;-80
2023/01/16 01:30:44;;;;;;;1999.90;999.90;;;9.40;99.90;;;;;;5016374;28;20396;-82
2023/01/16 01:33:10;;;;;;;1999.90;999.90;;;9.40;99.90;;;;;;5014202;28;20036;-80
2023/01/16 01:35:36;;;;;;;1999.90;999.90;;;9.50;99.90;;;;;;5017593;28;20496;-85
2023/01/16 01:38:02;;;;;;;1999.90;999.90;;;9.50;99.90;;;;;;5016077;28;20040;-80
2023/01/16 01:40:27;;;;;;;1999.90;999.90;;;9.70;99.90;;;;;;5015466;28;20026;-79
2023/01/16 01:42:53;;;;;;;1999.90;999.90;;;9.90;99.90;;;;;;5013704;28;20030;-79
2023/01/16 01:45:21;;;;;;;1999.90;999.90;;;10.00;99.90;;;;;;5013962;28;20507;-80
2023/01/16 01:47:54;;;;;;;1999.90;999.90;;;10.20;99.90;;;;;;5011709;28;20560;-79
2023/01/16 01:50:49;;;;;;;1999.90;999.90;;;10.40;99.90;;;;;;5013857;28;20025;-79
2023/01/16 01:53:22;;;;;;;1999.90;999.90;;;10.30;99.90;;;;;;5008109;28;20053;-78
2023/01/16 01:55:48;;;;;;;1999.90;999.90;;;8.60;99.90;;;;;;4995048;28;20515;-78
2023/01/16 01:58:21;;;;;;;1999.90;999.90;;;8.30;99.90;;;;;;5007474;28;20474;-79
2023/01/16 02:00:50;;;;;;;1999.90;999.90;;;8.40;99.90;;;;;;5014505;28;20440;-78
2023/01/16 02:03:27;;;;;;;1999.90;999.90;;;8.60;99.90;;;;;;5014247;28;20034;-80
2023/01/16 02:05:57;;;;;;;1999.90;999.90;;;8.90;99.90;;;;;;5014224;28;20022;-79
2023/01/16 02:08:27;;;;;;;1999.90;999.90;;;9.20;99.90;;;;;;5012728;28;20037;-79
2023/01/16 02:11:00;;;;;;;1999.90;999.90;;;9.40;99.90;;;;;;5015365;28;20566;-78
2023/01/16 02:13:26;;;;;;;;;;;9.60;99.90;;;;;;5015487;28;20117;-80
2023/01/16 02:21:22;;;;;;;1999.90;999.90;;;9.90;99.90;;;;;;5010288;28;20467;-80
2023/01/16 02:24:49;;;;;;;1999.90;999.90;;;9.90;99.90;;;;;;5014154;28;20470;-79
2023/01/16 02:28:06;;;;;;;1999.90;999.90;;;9.90;99.90;;;;;;4973143;28;20139;-79
2023/01/16 02:30:50;;;;;;;1999.90;999.90;;;9.80;99.90;;;;;;4973371;28;20111;-79
2023/01/16 02:33:23;;;;;;;1999.90;999.90;;;9.90;99.90;;;;;;5012011;28;20033;-80
2023/01/16 02:36:24;;;;;;;1999.90;999.90;;;9.80;99.90;;;;;;5015371;28;20101;-79
2023/01/16 02:39:05;;;;;;;1999.90;999.90;;;9.90;99.90;;;;;;5012023;28;20041;-79
2023/01/16 02:41:41;;;;;;;1999.90;999.90;;;9.80;99.90;;;;;;5014260;28;20054;-84
2023/01/16 02:44:30;;;;;;;1999.90;999.90;;;9.80;99.90;;;;;;5012511;28;20041;-83
2023/01/16 02:47:06;;;;;;;1999.90;999.90;;;9.80;99.90;;;;;;5014242;28;20057;-80
2023/01/16 02:49:47;;;;;;;1999.90;999.90;;;10.00;99.90;;;;;;5013162;28;20034;-79
2023/01/16 02:52:29;;;;;;;1999.90;999.90;;;9.90;99.90;;;;;;5014017;28;20022;-84
2023/01/16 02:55:03;;;;;;;1999.90;999.90;;;10.10;99.90;;;;;;4994646;28;20109;-79
2023/01/16 02:57:34;;;;;;;1999.90;999.90;;;10.20;99.90;;;;;;4993993;28;20405;-79
2023/01/16 03:00:04;;;;;;;1999.90;999.90;;;10.10;99.90;;;;;;4994145;28;20026;-78
2023/01/16 03:02:30;;;;;;;1999.90;999.90;;;9.70;99.90;;;;;;4994255;28;20065;-80
2023/01/16 03:04:55;;;;;;;1999.90;999.90;;;9.30;99.90;;;;;;4994246;28;20062;-79
2023/01/16 03:07:35;;;;;;;1999.90;999.90;;;9.10;99.90;;;;;;4993028;28;20049;-79
2023/01/16 03:10:27;;;;;;;1999.90;999.90;;;9.00;99.90;;;;;;5002655;28;20080;-80
2023/01/16 03:13:12;;;;;;;1999.90;999.90;;;9.00;99.90;;;;;;5013554;28;20025;-80
2023/01/16 03:16:00;;;;;;;1999.90;999.90;;;9.10;99.90;;;;;;5015988;28;20108;-80
2023/01/16 03:18:31;;;;;;;1999.90;999.90;;;9.00;99.90;;;;;;5012072;28;20559;-79
2023/01/16 03:21:07;;;;;;;1999.90;999.90;;;8.90;99.90;;;;;;5011914;28;20099;-79
2023/01/16 03:23:57;;;;;;;1999.90;999.90;;;8.90;99.90;;;;;;5015064;28;20046;-79
2023/01/16 03:26:41;;;;;;;1999.90;999.90;;;8.90;99.90;;;;;;5014004;28;20038;-79
2023/01/16 03:29:29;;;;;;;1999.90;999.90;;;9.10;99.90;;;;;;5013768;28;20037;-79
2023/01/16 03:31:54;;;;;;;1999.90;999.90;;;9.30;99.90;;;;;;5014393;28;20029;-80
2023/01/16 03:34:27;;;;;;;1999.90;999.90;;;9.30;99.90;;;;;;5013848;28;20018;-80
2023/01/16 03:36:59;;;;;;;1999.90;999.90;;;9.30;99.90;;;;;;5014001;28;20401;-79
2023/01/16 03:39:32;;;;;;;1999.90;999.90;;;9.30;99.90;;;;;;5013903;28;20118;-79
2023/01/16 03:42:04;;;;;;;1999.90;999.90;;;9.40;99.90;;;;;;5013059;28;20489;-79
2023/01/16 03:44:40;;;;;;;1999.90;999.90;;;9.50;99.90;;;;;;5013430;28;20539;-78
2023/01/16 03:47:12;;;;;;;1999.90;999.90;;;9.40;99.90;;;;;;5011821;28;20128;-79
2023/01/16 03:49:43;;;;;;;1999.90;999.90;;;9.40;99.90;;;;;;5012726;28;20022;-80
2023/01/16 03:52:13;;;;;;;1999.90;999.90;;;9.30;99.90;;;;;;5012828;28;20033;-79
2023/01/16 03:54:48;;;;;;;1999.90;999.90;;;9.20;99.90;;;;;;5013768;28;20022;-82
2023/01/16 03:57:24;;;;;;;1999.90;999.90;;;9.10;99.90;;;;;;5013002;28;20041;-79
2023/01/16 03:59:51;;;;;;;1999.90;999.90;;;9.10;99.90;;;;;;5013269;28;20032;-80
2023/01/16 04:02:23;;;;;;;1999.90;999.90;;;9.10;99.90;;;;;;5012105;28;20428;-79
2023/01/16 04:04:52;;;;;;;1999.90;999.90;;;9.10;99.90;;;;;;5012973;28;20061;-79
2023/01/16 04:07:18;;;;;;;1999.90;999.90;;;9.10;99.90;;;;;;5013174;28;20048;-79
2023/01/16 04:09:56;;;;;;;1999.90;999.90;;;9.00;99.90;;;;;;5014237;28;20497;-80
2023/01/16 04:12:27;;;;;;;1999.90;999.90;;;9.10;99.90;;;;;;5011731;28;20124;-81
2023/01/16 04:15:01;;;;;;;1999.90;999.90;;;9.30;99.90;;;;;;5012365;28;20026;-81
2023/01/16 04:17:27;;;;;;;1999.90;999.90;;;9.20;99.90;;;;;;5012411;28;20026;-79
2023/01/16 04:19:53;;;;;;;1999.90;999.90;;;9.10;99.90;;;;;;5013444;28;20481;-79
2023/01/16 04:22:26;;;;;;;1999.90;999.90;;;9.10;99.90;;;;;;5012767;28;20041;-79
2023/01/16 04:24:54;;;;;;;1999.90;999.90;;;9.00;99.90;;;;;;5012857;28;20149;-81
2023/01/16 04:27:21;;;;;;;1999.90;999.90;;;9.00;99.90;;;;;;5012903;28;20033;-83
2023/01/16 04:29:47;;;;;;;1999.90;999.90;;;9.00;99.90;;;;;;5011789;28;20048;-79
2023/01/16 04:32:13;;;;;;;1999.90;999.90;;;8.90;99.90;;;;;;5012808;28;20032;-79
2023/01/16 04:34:39;;;;;;;1999.90;999.90;;;9.00;99.90;;;;;;5013373;28;20397;-83
2023/01/16 04:37:05;;;;;;;1999.90;999.90;;;9.10;99.90;;;;;;5013024;28;20037;-80
2023/01/16 04:39:31;;;;;;;1999.90;999.90;;;9.00;99.90;;;;;;5013123;28;20445;-79
2023/01/16 04:41:56;;;;;;;1999.90;999.90;;;9.00;99.90;;;;;;5012626;28;20073;-80
2023/01/16 04:44:22;;;;;;;1999.90;999.90;;;9.10;99.90;;;;;;5013289;28;20061;-80
2023/01/16 04:46:47;;;;;;;1999.90;999.90;;;9.10;99.90;;;;;;5013685;28;20105;-79
2023/01/16 04:49:13;;;;;;;1999.90;999.90;;;9.00;99.90;;;;;;5013004;28;20030;-82
2023/01/16 04:51:39;;;;;;;1999.90;999.90;;;9.10;99.90;;;;;;5013136;28;20105;-79
2023/01/16 04:54:06;;;;;;;1999.90;999.90;;;9.20;99.90;;;;;;4999101;28;20417;-79
2023/01/16 04:56:32;;;;;;;1999.90;999.90;;;9.10;99.90;;;;;;4993327;28;20109;-80
2023/01/16 04:58:58;;;;;;;1999.90;999.90;;;9.00;99.90;;;;;;5011754;28;20026;-80
2023/01/16 05:01:24;;;;;;;1999.90;999.90;;;9.00;99.90;;;;;;5013298;28;20540;-79
2023/01/16 05:03:49;;;;;;;1999.90;999.90;;;9.20;99.90;;;;;;5016116;28;20781;-79
2023/01/16 05:06:15;;;;;;;1999.90;999.90;;;9.20;99.90;;;;;;5015921;28;20089;-79
2023/01/16 05:08:41;;;;;;;1999.90;999.90;;;9.30;99.90;;;;;;5014620;28;20030;-78
2023/01/16 05:11:07;;;;;;;1999.90;999.90;;;9.40;99.90;;;;;;5014644;28;20026;-79
2023/01/16 05:13:32;;;;;;;1999.90;999.90;;;9.40;99.90;;;;;;5015563;28;20111;-79
2023/01/16 05:15:58;;;;;;;1999.90;999.90;;;9.40;99.90;;;;;;5014307;28;20026;-83
2023/01/16 05:18:24;;;;;;;1999.90;999.90;;;9.60;99.90;;;;;;5015629;28;20026;-82
2023/01/16 05:20:50;;;;;;;1999.90;999.90;;;9.60;99.90;;;;;;5014814;28;20124;-79
2023/01/16 05:23:16;;;;;;;1999.90;999.90;;;9.60;99.90;;;;;;5014949;28;20065;-78
2023/01/16 05:25:42;;;;;;;1999.90;999.90;;;9.70;99.90;;;;;;5014280;28;20018;-79
2023/01/16 05:28:08;;;;;;;1999.90;999.90;;;9.70;99.90;;;;;;5015430;28;20579;-79
2023/01/16 05:30:34;;;;;;;1999.90;999.90;;;9.80;99.90;;;;;;5015819;28;20058;-79
2023/01/16 05:33:01;;;;;;;1999.90;999.90;;;9.70;99.90;;;;;;5014423;28;20121;-86
2023/01/16 05:35:27;;;;;;;1999.90;999.90;;;9.60;99.90;;;;;;5016201;28;20030;-80
2023/01/16 05:37:53;;;;;;;1999.90;999.90;;;9.60;99.90;;;;;;5014970;28;20085;-79
2023/01/16 05:40:18;;;;;;;1999.90;999.90;;;9.60;99.90;;;;;;5016672;28;20018;-79
2023/01/16 05:42:46;;;;;;;1999.90;999.90;;;9.60;99.90;;;;;;5015047;28;20049;-80
2023/01/16 05:45:11;;;;;;;1999.90;999.90;;;9.70;99.90;;;;;;5016369;28;20382;-79
2023/01/16 05:47:37;;;;;;;1999.90;999.90;;;9.70;99.90;;;;;;5015960;28;20117;-84
2023/01/16 05:50:03;;;;;;;1999.90;999.90;;;9.80;99.90;;;;;;5015743;28;20502;-78
2023/01/16 05:52:29;;;;;;;1999.90;999.90;;;9.80;99.90;;;;;;5015142;28;20392;-79
2023/01/16 05:54:55;;;;;;;1999.90;999.90;;;9.80;99.90;;;;;;5013979;28;20022;-79
2023/01/16 05:57:22;;;;;;;1999.90;999.90;;;9.80;99.90;;;;;;5014371;28;20022;-79
2023/01/16 05:59:49;;;;;;;1999.90;999.90;;;9.70;99.90;;;;;;5014912;28;20036;-79
2023/01/16 06:02:15;;;;;;;1999.90;999.90;;;9.40;99.90;;;;;;5014398;28;20541;-79
2023/01/16 06:04:40;;;;;;;1999.90;999.90;;;9.20;99.90;;;;;;5014560;28;20028;-79
2023/01/16 06:07:06;;;;;;;1999.90;999.90;;;9.10;99.90;;;;;;5014152;28;20484;-80
2023/01/16 06:09:31;;;;;;;1999.90;999.90;;;9.00;99.90;;;;;;5013863;28;20105;-79
2023/01/16 06:11:57;;;;;;;1999.90;999.90;;;8.90;99.90;;;;;;5014103;28;20465;-79
2023/01/16 06:14:23;;;;;;;1999.90;999.90;;;8.90;99.90;;;;;;5014285;28;20022;-85
2023/01/16 06:16:49;;;;;;;1999.90;999.90;;;9.00;99.90;;;;;;5014100;28;20480;-79
2023/01/16 06:19:14;;;;;;;1999.90;999.90;;;9.10;99.90;;;;;;5013815;28;20068;-79
2023/01/16 06:21:40;;;;;;;1999.90;999.90;;;9.10;99.90;;;;;;5012429;28;20136;-79
2023/01/16 06:24:06;;;;;;;1999.90;999.90;;;9.10;99.90;;;;;;5013980;28;20117;-79
2023/01/16 06:26:32;;;;;;;1999.90;999.90;;;9.20;99.90;;;;;;5013409;28;20473;-79
2023/01/16 06:28:57;;;;;;;1999.90;999.90;;;9.30;99.90;;;;;;5013903;28;20159;-79
2023/01/16 06:31:23;;;;;;;1999.90;999.90;;;9.40;99.90;;;;;;5013929;28;20034;-84
2023/01/16 06:33:49;;;;;;;1999.90;999.90;;;9.40;99.90;;;;;;5014049;28;20018;-79
2023/01/16 06:36:15;;;;;;;1999.90;999.90;;;9.40;99.90;;;;;;5013565;28;20445;-79
2023/01/16 06:38:40;;;;;;;1999.90;999.90;;;9.40;99.90;;;;;;5013732;28;20034;-78
2023/01/16 06:41:06;;;;;;;1999.90;999.90;;;9.60;99.90;;;;;;5004966;28;20109;-79
2023/01/16 06:43:32;;;;;;;1999.90;999.90;;;9.60;99.90;;;;;;5012792;28;20026;-81
2023/01/16 06:45:57;;;;;;;1999.90;999.90;;;9.20;99.90;;;;;;5019374;28;20423;-79
2023/01/16 06:48:23;;;;;;;1999.90;999.90;;;8.70;99.90;;;;;;5016047;28;20041;-79
2023/01/16 06:50:49;;;;;;;1999.90;999.90;;;8.50;99.90;;;;;;5012561;28;20483;-79
2023/01/16 06:53:15;;;;;;;1999.90;999.90;;;8.40;99.90;;;;;;5005008;28;20100;-79
2023/01/16 06:55:41;;;;;;;1999.90;999.90;;;7.80;99.90;;;;;;4998402;28;20552;-78
2023/01/16 06:58:08;;;;;;;1999.90;999.90;;;7.30;99.90;;;;;;5009010;28;20026;-78
2023/01/16 07:00:34;;;;;;;1999.90;999.90;;;6.90;99.90;;;;;;5008791;28;20030;-78
2023/01/16 07:03:01;;;;;;;1999.90;999.90;;;6.80;99.90;;;;;;5032728;28;20033;-78
2023/01/16 07:05:29;;;;;;;1999.90;999.90;;;6.90;99.90;;;;;;5032624;28;20030;-78
2023/01/16 07:07:55;;;;;;;1999.90;999.90;;;7.00;99.90;;;;;;5031196;28;20048;-79
2023/01/16 07:10:21;;;;;;;1999.90;999.90;;;7.00;99.90;;;;;;4991662;28;20042;-79
2023/01/16 07:12:49;;;;;;;1999.90;999.90;;;7.10;99.90;;;;;;5009583;28;20500;-79
2023/01/16 07:23:44;;;;;;;1999.90;999.90;;;7.40;99.90;;;;;;5016634;28;20523;-79
2023/01/16 07:26:12;;;;;;;1999.90;999.90;;;7.50;99.90;;;;;;5011026;28;20031;-79
2023/01/16 07:28:38;;;;;;;1999.90;999.90;;;7.60;99.90;;;;;;5011969;28;20401;-79
2023/01/16 07:31:06;;;;;;;1999.90;999.90;;;7.60;99.90;;;;;;5011068;28;20018;-79
2023/01/16 07:33:32;;;;;;;1999.90;999.90;;;7.60;99.90;;;;;;5009493;28;20057;-79
2023/01/16 07:35:58;;;;;;;1999.90;999.90;;;7.60;99.90;;;;;;5011363;28;20080;-79
2023/01/16 07:38:23;;;;;;;1999.90;999.90;;;7.70;99.90;;;;;;5010193;28;20040;-79
2023/01/16 07:40:49;;;;;;;1999.90;999.90;;;7.70;99.90;;;;;;5010261;28;20101;-79
2023/01/16 07:43:14;;;;;;;1999.90;999.90;;;7.80;99.90;;;;;;5012445;28;20026;-80
2023/01/16 07:45:40;;;;;;;1999.90;999.90;;;7.80;99.90;;;;;;5012586;28;20446;-79
2023/01/16 07:48:06;;;;;;;1999.90;999.90;;;7.90;99.90;;;;;;5013874;28;20041;-79
2023/01/16 07:50:32;;;;;;;1999.90;999.90;;;8.00;99.90;;;;;;5003704;28;20417;-79
2023/01/16 07:52:57;;;;;;;1999.90;999.90;;;7.90;99.90;;;;;;5005300;28;20032;-79
2023/01/16 07:55:24;;;;;;;1999.90;999.90;;;7.80;99.90;;;;;;5010516;28;20025;-79
2023/01/16 07:57:49;;;;;;;1999.90;999.90;;;7.80;99.90;;;;;;5008902;28;20022;-79
2023/01/16 08:00:15;;;;;;;1999.90;999.90;;;7.80;99.90;;;;;;5009007;28;20076;-77
2023/01/16 08:02:41;;;;;;;1999.90;999.90;;;7.70;99.90;;;;;;5011886;28;20037;-77
2023/01/16 08:05:08;;;;;;;1999.90;999.90;;;7.50;99.90;;;;;;5014765;28;20086;-77
2023/01/16 08:07:34;;;;;;;1999.90;999.90;;;7.60;99.90;;;;;;5008265;28;20084;-74
2023/01/16 08:09:59;;;;;;;1999.90;999.90;;;7.60;99.90;;;;;;5004147;28;20038;-76
2023/01/16 08:12:25;;;;;;;1999.90;999.90;;;7.60;99.90;;;;;;5008023;28;20040;-77
2023/01/16 08:14:50;;;;;;;1999.90;999.90;;;7.60;99.90;;;;;;5008915;28;20084;-76
2023/01/16 08:17:16;;;;;;;1999.90;999.90;;;7.40;99.90;;;;;;5010327;28;20151;-76
2023/01/16 08:19:42;;;;;;;1999.90;999.90;;;7.30;99.90;;;;;;5009376;28;20026;-76
2023/01/16 08:22:07;;;;;;;1999.90;999.90;;;7.00;99.90;;;;;;5007587;28;20104;-76
2023/01/16 08:24:33;;;;;;;1999.90;999.90;;;6.90;99.90;;;;;;5007823;28;20185;-76
2023/01/16 08:26:59;;;;;;;1999.90;999.90;;;6.90;99.90;;;;;;5012287;28;20489;-76
2023/01/16 08:29:24;;;;;;;1999.90;999.90;;;7.00;99.90;;;;;;5008256;28;20516;-76
2023/01/16 08:31:50;;;;;;;1999.90;999.90;;;7.20;99.90;;;;;;5009342;28;20041;-76
2023/01/16 08:34:16;;;;;;;1999.90;999.90;;;7.40;99.90;;;;;;5004936;28;20060;-77
2023/01/16 08:36:42;;;;;;;1999.90;999.90;;;7.60;99.90;;;;;;5009082;28;20112;-77
2023/01/16 08:39:10;;;;;;;1999.90;999.90;;;7.70;99.90;;;;;;5008783;28;20056;-77
2023/01/16 08:52:49;;;;;;;1999.90;999.90;;;8.40;99.90;;;;;;5013664;28;20557;-76
2023/01/16 08:55:15;;;;;;;1999.90;999.90;;;8.70;99.90;;;;;;5026221;28;20025;-78
2023/01/16 08:57:41;;;;;;;1999.90;999.90;;;8.60;99.90;;;;;;5020215;28;20061;-77
2023/01/16 09:00:08;;;;;;;1999.90;999.90;;;8.60;99.90;;;;;;5020143;28;20026;-78
2023/01/16 09:02:35;;;;;;;1999.90;999.90;;;8.40;99.90;;;;;;5018433;28;20033;-77
2023/01/16 09:05:02;;;;;;;1999.90;999.90;;;8.20;99.90;;;;;;5016816;28;20091;-76
2023/01/16 09:07:28;;;;;;;1999.90;999.90;;;8.10;99.90;;;;;;5011014;28;20037;-77
2023/01/16 09:09:54;;;;;;;1999.90;999.90;;;8.00;99.90;;;;;;5017138;28;20105;-78
2023/01/16 09:15:05;;;;;;;1999.90;999.90;;;7.90;99.90;;;;;;5015270;28;20041;-77
2023/01/16 09:17:32;;;;;;;1999.90;999.90;;;7.80;99.90;;;;;;5018142;28;20633;-76
2023/01/16 09:19:57;;;;;;;1999.90;999.90;;;7.70;99.90;;;;;;5011932;28;20206;-77
2023/01/16 09:22:26;;;;;;;1999.90;999.90;;;7.70;99.90;;;;;;5019515;28;20116;-77
2023/01/16 09:24:52;;;;;;;1999.90;999.90;;;7.70;99.90;;;;;;5010968;28;20473;-76
2023/01/16 09:27:19;;;;;;;1999.90;999.90;;;7.80;99.90;;;;;;5020106;28;20048;-77
2023/01/16 09:29:45;;;;;;;1999.90;999.90;;;7.90;99.90;;;;;;5013220;28;20527;-77
2023/01/16 09:32:11;;;;;;;1999.90;999.90;;;7.90;99.90;;;;;;5013192;28;20029;-77
2023/01/16 09:34:38;;;;;;;1999.90;999.90;;;8.00;99.90;;;;;;5009382;28;20065;-77
2023/01/16 09:37:05;;;;;;;1999.90;999.90;;;8.00;99.90;;;;;;5032684;28;20064;-77
2023/01/16 09:39:31;;;;;;;1999.90;999.90;;;7.80;99.90;;;;;;5022820;28;20673;-77
2023/01/16 09:44:52;;;;;;;1999.90;999.90;;;7.20;99.90;;;;;;5016459;28;20088;-76
2023/01/16 09:47:23;;;;;;;1999.90;999.90;;;6.90;99.90;;;;;;5035400;28;20034;-76
2023/01/16 09:49:53;;;;;;;1999.90;999.90;;;6.80;99.90;;;;;;5043523;28;20119;-76
2023/01/16 10:00:59;;;;;;;1999.90;999.90;;;6.80;99.90;;;;;;5014118;28;20052;-76
2023/01/16 10:03:24;;;;;;;1999.90;999.90;;;6.90;99.90;;;;;;5014657;28;20033;-77
2023/01/16 10:06:31;;;;;;;1999.90;999.90;;;6.90;99.90;;;;;;5013426;28;20033;-78
2023/01/16 10:08:56;;;;;;;1999.90;999.90;;;7.00;99.90;;;;;;4973050;28;20105;-78
2023/01/16 10:11:32;;;;;;;1999.90;999.90;;;7.00;99.90;;;;;;4962757;28;20202;-77
2023/01/16 10:14:19;;;;;;;1999.90;999.90;;;7.00;99.90;;;;;;4966247;28;20509;-77
2023/01/16 10:16:50;;;;;;;1999.90;999.90;;;6.90;99.90;;;;;;4983076;28;20410;-77
2023/01/16 10:19:15;;;;;;;1999.90;999.90;;;6.80;99.90;;;;;;4977019;28;20106;-77
2023/01/16 10:22:18;;;;;;;1999.90;999.90;;;6.80;99.90;;;;;;4961544;28;20141;-77
2023/01/16 10:25:08;;;;;;;1999.90;999.90;;;6.80;99.90;;;;;;4980920;28;20553;-77
2023/01/16 10:27:39;;;;;;;1999.90;999.90;;;6.80;99.90;;;;;;4980636;28;20034;-77
2023/01/16 10:30:20;;;;;;;1999.90;999.90;;;6.90;99.90;;;;;;4978824;28;20528;-76
2023/01/16 10:32:59;;;;;;;1999.90;999.90;;;7.50;99.90;;;;;;4971109;28;20050;-76
2023/01/16 10:35:32;;;;;;;1999.90;999.90;;;8.00;99.90;;;;;;4974072;28;20080;-77
2023/01/16 10:38:13;;;;;;;1999.90;999.90;;;7.70;99.90;;;;;;4978173;28;20034;-77
2023/01/16 10:40:41;;;;;;;1999.90;999.90;;;7.10;99.90;;;;;;4976640;28;20057;-77
2023/01/16 10:51:34;;;;;;;1999.90;999.90;;;7.00;99.90;;;;;;5017919;28;20117;-76
2023/01/16 10:54:00;;;;;;;1999.90;999.90;;;7.10;99.90;;;;;;5012227;28;20053;-77
2023/01/16 10:56:26;;;;;;;1999.90;999.90;;;7.10;99.90;;;;;;5023846;28;20032;-77
2023/01/16 10:58:52;;;;;;;1999.90;999.90;;;7.50;99.90;;;;;;5008332;28;20034;-77
2023/01/16 11:01:22;;;;;;;1999.90;999.90;;;7.70;99.90;;;;;;5009091;28;20061;-77
2023/01/16 11:03:51;;;;;;;1999.90;999.90;;;7.90;99.90;;;;;;5010771;28;20129;-77
2023/01/16 11:06:22;;;;;;;1999.90;999.90;;;8.00;99.90;;;;;;5019474;28;20037;-77
2023/01/16 11:08:53;;;;;;;1999.90;999.90;;;8.20;99.90;;;;;;5020985;28;20433;-77
2023/01/16 11:20:29;;;;;;;1999.90;999.90;;;7.60;99.90;;;;;;5009467;28;20044;-77
2023/01/16 11:23:03;;;;;;;1999.90;999.90;;;7.70;99.90;;;;;;5004379;28;20160;-77
2023/01/16 11:25:30;;;;;;;1999.90;999.90;;;8.00;99.90;;;;;;5008522;28;20105;-77
2023/01/16 11:28:02;;;;;;;1999.90;999.90;;;8.60;99.90;;;;;;5008937;28;20536;-77
2023/01/16 11:30:33;;;;;;;1999.90;999.90;;;9.10;99.90;;;;;;5010307;28;20504;-76
2023/01/16 11:32:59;;;;;;;1999.90;999.90;;;8.30;99.90;;;;;;5008089;28;20037;-76
2023/01/16 11:35:34;;;;;;;1999.90;999.90;;;7.70;99.90;;;;;;5018205;28;20021;-77
2023/01/16 11:38:02;;;;;;;1999.90;999.90;;;7.50;99.90;;;;;;5007558;28;20036;-76
2023/01/16 11:40:33;;;;;;;1999.90;999.90;;;7.40;99.90;;;;;;5011897;28;20041;-74
2023/01/16 11:46:11;;;;;;;1999.90;999.90;;;8.10;99.90;;;;;;5021339;28;20100;-75
2023/01/16 11:48:50;;;;;;;1999.90;999.90;;;8.40;99.90;;;;;;5006793;28;20034;-75
2023/01/16 11:51:18;;;;;;;1999.90;999.90;;;8.70;99.90;;;;;;5008573;28;20026;-75
2023/01/16 11:53:46;;;;;;;1999.90;999.90;;;8.80;99.90;;;;;;5003955;28;20126;-77
2023/01/16 11:56:33;;;;;;;1999.90;999.90;;;9.00;99.90;;;;;;5004527;28;20030;-77
2023/01/16 11:59:40;;;;;;;1999.90;999.90;;;9.20;99.90;;;;;;5006369;28;20037;-77
2023/01/16 12:02:24;;;;;;;1999.90;999.90;;;9.50;99.90;;;;;;4986720;28;20033;-76
2023/01/16 12:07:59;;;;;;;1999.90;999.90;;;9.90;99.90;;;;;;5019456;28;20067;-76
2023/01/16 12:11:02;;;;;;;1999.90;999.90;;;9.90;99.90;;;;;;5020909;28;20041;-76
2023/01/16 12:16:49;;;;;;;1999.90;999.90;;;9.70;99.90;;;;;;5015301;28;20052;-76
2023/01/16 12:19:38;;;;;;;1999.90;999.90;;;9.60;99.90;;;;;;5008200;28;20034;-76
2023/01/16 12:22:19;;;;;;;1999.90;999.90;;;9.30;99.90;;;;;;5018959;28;20100;-75
2023/01/16 12:25:16;;;;;;;1999.90;999.90;;;9.20;99.90;;;;;;5017227;28;20048;-75
2023/01/16 12:27:41;;;;;;;1999.90;999.90;;;9.30;99.90;;;;;;5012602;28;20025;-75
2023/01/16 12:30:58;;;;;;;1999.90;999.90;;;9.20;99.90;;;;;;5013645;28;20450;-76
2023/01/16 12:33:47;;;;;;;1999.90;999.90;;;9.60;99.90;;;;;;4996950;28;20034;-75
2023/01/16 12:36:20;;;;;;;1999.90;999.90;;;10.30;99.90;;;;;;5005120;28;20036;-75
2023/01/16 12:39:04;;;;;;;1999.90;999.90;;;10.40;99.90;;;;;;5015178;28;20034;-75
2023/01/16 12:44:57;;;;;;;1999.90;999.90;;;10.20;99.90;;;;;;5005903;28;20060;-75
2023/01/16 12:47:29;;;;;;;1999.90;999.90;;;10.50;99.90;;;;;;5006060;28;20103;-77
2023/01/16 12:50:36;;;;;;;1999.90;999.90;;;10.80;99.90;;;;;;5015056;28;20612;-76
2023/01/16 12:53:07;;;;;;;1999.90;999.90;;;10.60;99.90;;;;;;5005460;28;20452;-75
2023/01/16 12:55:38;;;;;;;1999.90;999.90;;;10.30;99.90;;;;;;5007519;28;20030;-75
2023/01/16 12:58:23;;;;;;;1999.90;999.90;;;10.10;99.90;;;;;;5007395;28;20123;-76
2023/01/16 13:01:23;;;;;;;1999.90;999.90;;;10.30;99.90;;;;;;5023694;28;20042;-76
2023/01/16 13:04:16;;;;;;;1999.90;999.90;;;10.40;99.90;;;;;;5019094;28;20076;-76
2023/01/16 13:06:48;;;;;;;1999.90;999.90;;;10.40;99.90;;;;;;5007057;28;20025;-76
2023/01/16 13:09:37;;;;;;;1999.90;999.90;;;10.30;99.90;;;;;;5005943;28;20101;-77
2023/01/16 13:15:09;;;;;;;1999.90;999.90;;;9.80;99.90;;;;;;5016650;28;20104;-76
2023/01/16 13:17:48;;;;;;;1999.90;999.90;;;9.60;99.90;;;;;;5027325;28;20485;-75
2023/01/16 13:20:17;;;;;;;1999.90;999.90;;;9.40;99.90;;;;;;5001571;28;20148;-76
2023/01/16 13:23:02;;;;;;;1999.90;999.90;;;9.30;99.90;;;;;;4999400;28;20038;-75
2023/01/16 13:25:31;;;;;;;1999.90;999.90;;;9.30;99.90;;;;;;5004045;28;20389;-75
2023/01/16 13:28:22;;;;;;;1999.90;999.90;;;9.50;99.90;;;;;;5006302;28;20040;-75
2023/01/16 13:30:56;;;;;;;1999.90;999.90;;;9.60;99.90;;;;;;5010216;28;20561;-76
2023/01/16 13:33:29;;;;;;;1999.90;999.90;;;9.70;99.90;;;;;;5009813;28;20046;-76
2023/01/16 13:36:12;;;;;;;1999.90;999.90;;;9.60;99.90;;;;;;5010007;28;20018;-77
2023/01/16 13:38:56;;;;;;;1999.90;999.90;;;9.60;99.90;;;;;;5006282;28;20100;-77